This is the latest recevied weather packets stored in our database for station/object DK6GC-10. If no packets are shown the sender has not sent any weather packets the latest 10 day(s).
| Time | Temp. | Humidity | Pressure | Rain* | Wind** | Luminosity | Snow |
|---|---|---|---|---|---|---|---|
| 1787669120 | 18.89° C | 78% | 1015.7 hPa | - | - | - | - |
| 1787668220 | 18.89° C | 77% | 1015.6 hPa | - | - | - | - |
| 1787667320 | 19.44° C | 74% | 1015.5 hPa | - | - | - | - |
| 1787666419 | 19.44° C | 72% | 1015.5 hPa | - | - | - | - |
| 1787665519 | 20° C | 71% | 1015.4 hPa | - | - | - | - |
| 1787664619 | 20.56° C | 72% | 1015.5 hPa | - | - | - | - |
| 1787663719 | 20° C | 72% | 1015.2 hPa | - | - | - | - |
| 1787662819 | 20° C | 71% | 1015.1 hPa | - | - | - | - |
| 1787661919 | 20.56° C | 68% | 1015.1 hPa | - | - | - | - |
| 1787661018 | 21.11° C | 69% | 1015 hPa | - | - | - | - |
| 1787660118 | 20° C | 71% | 1015 hPa | - | - | - | - |
| 1787659222 | 22.22° C | 65% | 1015.1 hPa | - | - | - | - |
| 1787658322 | 20.56° C | 69% | 1015.2 hPa | - | - | - | - |
| 1787657422 | 21.11° C | 69% | 1015.1 hPa | - | - | - | - |
| 1787656522 | 20.56° C | 71% | 1015.1 hPa | - | - | - | - |
| 1787655621 | 19.44° C | 74% | 1015.2 hPa | - | - | - | - |
| 1787654721 | 19.44° C | 75% | 1015.2 hPa | - | - | - | - |
| 1787653821 | 17.78° C | 80% | 1015.4 hPa | - | - | - | - |
| 1787652921 | 18.33° C | 79% | 1015.3 hPa | - | - | - | - |
| 1787652021 | 18.33° C | 81% | 1015.2 hPa | - | - | - | - |
| 1787651121 | 17.78° C | 80% | 1015 hPa | - | - | - | - |
| 1787650220 | 17.78° C | 82% | 1014.9 hPa | - | - | - | - |
| 1787649320 | 17.78° C | 83% | 1015 hPa | - | - | - | - |
| 1787648420 | 17.22° C | 84% | 1015 hPa | - | - | - | - |
| 1787647520 | 17.22° C | 82% | 1015 hPa | - | - | - | - |
* Rain since midnight (hover to see other rain measurements)
** Current wind speed in m/s (hover to see current wind gust speed)